Gujrat, Pakistan
Current Conditions -  °F | °C
As of 3:25 AM on Tuesday 27 Jan 2015 (Local Time) from OPLA Reporting Station
Moderate Fog Moderate Fog  
Wind Chill: 46°   Ceiling: Unl
Heat Index: 46°   Visibility: 0.37mi
Dew Point: 43°   Wind: 0mph
Humidity: 87%   Direction: NA
Pressure: NA   Gusts: NA
Location:  32.58°N, 74.07°E
Report Text: OPLA 262225Z 00000KT 0600 FG NSC 08/06 Q1020/A30.12
Loading
Personal Weather Stations






























Interactive Weather Map New forecast layout! Learn more

10-Day Weather Forecast

Advertisements
Track Severe Weather on mobile